createdAt,value
2018-06-23T00:01:41.489Z,0.80
2018-06-23T00:04:45.994Z,1.10
2018-06-23T00:07:50.899Z,1.10
2018-06-23T00:10:55.277Z,0.90
2018-06-23T00:14:00.132Z,1.10
2018-06-23T00:17:04.514Z,1.20
2018-06-23T00:20:08.834Z,1.30
2018-06-23T00:23:13.171Z,1.23
2018-06-23T00:26:31.802Z,1.20
2018-06-23T00:29:36.198Z,1.17
2018-06-23T00:32:40.806Z,1.30
2018-06-23T00:35:45.107Z,1.20
2018-06-23T00:38:49.537Z,1.10
2018-06-23T00:41:54.044Z,1.37
2018-06-23T00:44:58.417Z,1.10
2018-06-23T00:48:02.934Z,0.90
2018-06-23T00:51:18.088Z,1.07
2018-06-23T00:54:22.567Z,1.10
2018-06-23T00:57:27.542Z,1.20
2018-06-23T01:00:31.845Z,1.43
2018-06-23T01:03:36.434Z,1.10
2018-06-23T01:06:40.763Z,1.20
2018-06-23T01:09:45.208Z,1.10
2018-06-23T01:12:49.497Z,1.47
2018-06-23T01:15:53.781Z,1.27
2018-06-23T01:18:58.116Z,1.03
2018-06-23T01:22:02.428Z,1.60
2018-06-23T01:25:06.940Z,1.40
2018-06-23T01:28:10.964Z,1.20
2018-06-23T01:31:15.644Z,1.33
2018-06-23T01:34:19.920Z,1.73
2018-06-23T01:37:24.244Z,1.50
2018-06-23T01:40:30.173Z,1.50
2018-06-23T01:43:35.053Z,1.40
2018-06-23T01:46:39.373Z,1.60
2018-06-23T01:49:43.659Z,1.60
2018-06-23T01:52:48.201Z,1.70
2018-06-23T01:55:52.496Z,1.50
2018-06-23T01:58:56.787Z,1.30
2018-06-23T02:02:01.579Z,1.70
2018-06-23T02:05:06.032Z,1.40
2018-06-23T02:08:10.300Z,1.50
2018-06-23T02:11:15.534Z,1.63
2018-06-23T02:14:25.042Z,1.70
2018-06-23T02:17:34.618Z,1.47
2018-06-23T02:21:43.101Z,1.40
2018-06-23T02:24:52.695Z,1.20
2018-06-23T02:28:02.362Z,1.83
2018-06-23T02:31:11.979Z,1.30
2018-06-23T02:34:21.639Z,1.07
2018-06-23T02:37:25.987Z,1.20
2018-06-23T02:40:30.250Z,1.20
2018-06-23T02:43:35.785Z,1.20
2018-06-23T02:46:40.113Z,1.30
2018-06-23T02:49:44.501Z,1.20
2018-06-23T02:52:48.916Z,1.43
2018-06-23T02:55:53.213Z,1.20
2018-06-23T02:58:57.591Z,1.33
2018-06-23T03:02:01.873Z,1.40
2018-06-23T03:05:07.154Z,1.23
2018-06-23T03:08:11.406Z,1.30
2018-06-23T03:11:15.727Z,1.27
2018-06-23T03:14:20.148Z,1.67
2018-06-23T03:17:24.409Z,1.60
2018-06-23T03:20:30.486Z,1.53
2018-06-23T03:23:35.332Z,1.40
2018-06-23T03:26:39.619Z,1.40
2018-06-23T03:29:43.889Z,1.23
2018-06-23T03:32:48.191Z,1.77
2018-06-23T03:35:53.136Z,1.40
2018-06-23T03:38:57.434Z,1.37
2018-06-23T03:42:01.725Z,1.60
2018-06-23T03:45:06.064Z,1.50
2018-06-23T03:48:10.160Z,1.20
2018-06-23T03:51:14.522Z,1.40
2018-06-23T03:54:18.868Z,1.70
2018-06-23T03:57:23.254Z,1.33
2018-06-23T04:00:28.132Z,1.43
2018-06-23T04:03:32.606Z,1.30
2018-06-23T04:06:37.037Z,2.13
2018-06-23T04:09:41.294Z,1.50
2018-06-23T04:12:45.678Z,1.73
2018-06-23T04:15:50.089Z,1.63
2018-06-23T04:18:57.302Z,1.63
2018-06-23T04:22:02.548Z,1.40
2018-06-23T04:25:06.995Z,1.70
2018-06-23T04:28:12.377Z,1.40
2018-06-23T04:31:16.632Z,1.80
2018-06-23T04:34:20.954Z,1.73
2018-06-23T04:37:25.290Z,1.40
2018-06-23T04:40:29.963Z,1.33
2018-06-23T04:43:34.670Z,1.20
2018-06-23T04:46:38.928Z,1.47
2018-06-23T04:49:44.226Z,1.00
2018-06-23T04:52:48.585Z,1.30
2018-06-23T04:55:53.163Z,1.37
2018-06-23T04:58:57.476Z,1.47
2018-06-23T05:02:01.827Z,1.63
2018-06-23T05:05:06.143Z,1.60
2018-06-23T05:08:10.437Z,1.83
2018-06-23T05:11:15.702Z,1.83
2018-06-23T05:14:20.711Z,1.43
2018-06-23T05:17:25.059Z,1.70
2018-06-23T05:20:29.482Z,1.87
2018-06-23T05:23:35.542Z,1.97
2018-06-23T05:26:39.958Z,2.23
2018-06-23T05:29:44.487Z,2.10
2018-06-23T05:32:48.844Z,2.20
2018-06-23T05:35:53.664Z,2.20
2018-06-23T05:38:59.119Z,2.50
2018-06-23T05:42:03.752Z,2.20
2018-06-23T05:45:08.185Z,1.85
2018-06-23T05:48:13.077Z,2.30
2018-06-23T05:51:19.082Z,2.40
2018-06-23T05:54:23.401Z,1.87
2018-06-23T05:57:27.727Z,2.53
2018-06-23T06:00:32.227Z,2.10
2018-06-23T06:03:36.735Z,2.33
2018-06-23T06:06:40.772Z,2.17
2018-06-23T06:09:45.042Z,2.37
2018-06-23T06:12:49.367Z,2.30
2018-06-23T06:15:53.669Z,1.97
2018-06-23T06:18:58.985Z,2.93
2018-06-23T06:22:03.420Z,2.12
2018-06-23T06:25:08.323Z,2.90
2018-06-23T06:28:13.561Z,2.27
2018-06-23T06:31:17.882Z,2.33
2018-06-23T06:34:23.351Z,1.97
2018-06-23T06:37:28.437Z,2.10
2018-06-23T06:40:32.762Z,2.13
2018-06-23T06:43:37.180Z,2.10
2018-06-23T06:46:41.639Z,2.15
2018-06-23T06:49:45.958Z,2.60
2018-06-23T06:52:50.408Z,1.97
2018-06-23T06:55:54.770Z,2.33
2018-06-23T06:58:59.334Z,2.33
2018-06-23T07:02:03.666Z,2.00
2018-06-23T07:05:08.011Z,2.40
2018-06-23T07:08:12.310Z,1.97
2018-06-23T07:11:16.710Z,2.77
2018-06-23T07:14:21.047Z,2.23
2018-06-23T07:17:25.344Z,2.00
2018-06-23T07:20:30.800Z,1.80
2018-06-23T07:23:36.590Z,1.47
2018-06-23T07:26:41.252Z,1.50
2018-06-23T07:29:45.683Z,1.27
2018-06-23T07:32:50.056Z,1.20
2018-06-23T07:35:54.650Z,1.87
2018-06-23T07:38:59.486Z,1.50
2018-06-23T07:42:05.252Z,1.60
2018-06-23T07:45:09.327Z,1.47
2018-06-23T07:48:13.637Z,1.30
2018-06-23T07:51:17.962Z,1.07
2018-06-23T07:54:22.314Z,1.33
2018-06-23T07:57:26.632Z,1.30
2018-06-23T08:00:31.081Z,1.20
2018-06-23T08:03:37.667Z,1.57
2018-06-23T08:06:42.171Z,1.37
2018-06-23T08:09:46.478Z,1.10
2018-06-23T08:12:51.963Z,1.40
2018-06-23T08:15:56.301Z,1.27
2018-06-23T08:19:00.626Z,1.10
2018-06-23T08:22:05.779Z,1.50
2018-06-23T08:25:10.085Z,1.23
2018-06-23T08:28:14.585Z,1.40
2018-06-23T08:31:18.921Z,1.42
2018-06-23T08:34:24.523Z,1.57
2018-06-23T08:37:30.008Z,1.00
2018-06-23T08:40:34.993Z,1.20
2018-06-23T08:43:39.505Z,1.00
2018-06-23T08:46:45.344Z,1.10
2018-06-23T08:49:50.816Z,1.00
2018-06-23T08:52:55.292Z,1.60
2018-06-23T08:55:59.736Z,1.30
2018-06-23T08:59:04.090Z,1.03
2018-06-23T09:02:09.775Z,1.47
2018-06-23T09:05:14.161Z,1.20
2018-06-23T09:08:18.528Z,1.03
2018-06-23T09:11:23.294Z,1.23
2018-06-23T09:14:27.722Z,1.17
2018-06-23T09:17:32.094Z,1.10
2018-06-23T09:20:36.577Z,1.20
2018-06-23T09:23:40.965Z,1.10
2018-06-23T09:26:45.318Z,1.03
2018-06-23T09:29:49.646Z,1.00
2018-06-23T09:32:54.330Z,0.70
2018-06-23T09:35:58.710Z,1.00
2018-06-23T09:39:03.329Z,0.93
2018-06-23T09:42:07.845Z,0.80
2018-06-23T09:45:12.196Z,0.77
2018-06-23T09:48:16.932Z,0.80
2018-06-23T09:51:21.611Z,0.80
2018-06-23T09:54:26.393Z,1.00
2018-06-23T09:57:30.898Z,0.80
2018-06-23T10:00:35.324Z,0.80
2018-06-23T10:03:39.751Z,0.70
2018-06-23T10:06:45.130Z,0.80
2018-06-23T10:09:49.561Z,0.67
2018-06-23T10:12:54.144Z,0.90
2018-06-23T10:15:59.395Z,0.90
2018-06-23T10:19:03.817Z,0.70
2018-06-23T10:22:08.314Z,0.90
2018-06-23T10:25:12.727Z,0.80
2018-06-23T10:28:17.286Z,0.83
2018-06-23T10:31:21.906Z,0.70
2018-06-23T10:34:26.409Z,0.82
2018-06-23T10:37:30.856Z,0.80
2018-06-23T10:40:35.786Z,0.77
2018-06-23T10:43:40.596Z,0.70
2018-06-23T10:46:46.957Z,0.90
2018-06-23T10:49:51.506Z,0.90
2018-06-23T10:52:55.972Z,1.13
2018-06-23T10:56:00.414Z,0.73
2018-06-23T10:59:04.977Z,1.00
2018-06-23T11:02:09.364Z,0.90
2018-06-23T11:05:13.885Z,0.97
2018-06-23T11:08:18.580Z,1.20
2018-06-23T11:11:23.013Z,0.83
2018-06-23T11:14:27.512Z,0.80
2018-06-23T11:17:32.176Z,0.87
2018-06-23T11:20:36.509Z,0.70
2018-06-23T11:23:40.870Z,0.70
2018-06-23T11:26:45.307Z,0.90
2018-06-23T11:29:49.760Z,0.80
2018-06-23T11:32:54.260Z,0.70
2018-06-23T11:35:58.627Z,1.00
2018-06-23T11:39:02.937Z,0.83
2018-06-23T11:42:07.314Z,0.80
2018-06-23T11:45:11.681Z,0.63
2018-06-23T11:48:16.107Z,1.10
2018-06-23T11:51:20.433Z,1.13
2018-06-23T11:54:24.862Z,0.90
2018-06-23T11:57:29.172Z,0.63
2018-06-23T12:00:33.488Z,0.80
2018-06-23T12:03:37.764Z,0.63
2018-06-23T12:06:43.352Z,0.80
2018-06-23T12:09:47.830Z,0.90
2018-06-23T12:12:52.337Z,0.87
2018-06-23T12:15:56.701Z,0.83
2018-06-23T12:19:01.021Z,0.77
2018-06-23T12:22:05.497Z,0.90
2018-06-23T12:25:10.003Z,0.90
2018-06-23T12:28:14.421Z,0.90
2018-06-23T12:31:18.734Z,1.00
2018-06-23T12:34:22.912Z,0.90
2018-06-23T12:37:28.588Z,1.10
2018-06-23T12:43:44.246Z,0.87
2018-06-23T12:46:48.608Z,0.90
2018-06-23T12:49:53.172Z,0.90
2018-06-23T12:52:57.863Z,1.13
2018-06-23T12:56:02.302Z,0.90
2018-06-23T12:59:06.597Z,0.93
2018-06-23T13:02:11.446Z,1.10
2018-06-23T13:05:15.780Z,0.93
2018-06-23T13:08:20.184Z,1.03
2018-06-23T13:11:25.523Z,1.30
2018-06-23T13:14:30.853Z,0.87
2018-06-23T13:17:35.860Z,0.77
2018-06-23T13:20:41.205Z,0.90
2018-06-23T13:23:45.513Z,1.00
2018-06-23T13:26:50.465Z,0.83
2018-06-23T13:29:54.784Z,1.00
2018-06-23T13:32:59.646Z,1.00
2018-06-23T13:36:03.963Z,1.30
2018-06-23T13:39:10.063Z,1.17
2018-06-23T13:42:14.453Z,0.90
2018-06-23T13:45:18.748Z,1.00
2018-06-23T13:48:23.341Z,1.00
2018-06-23T13:51:27.721Z,0.90
2018-06-23T13:54:32.439Z,0.83
2018-06-23T13:57:36.655Z,0.90
2018-06-23T14:00:41.102Z,1.07
2018-06-23T14:03:45.634Z,0.70
2018-06-23T14:06:50.492Z,1.00
2018-06-23T14:09:54.814Z,0.90
2018-06-23T14:12:59.413Z,0.80
2018-06-23T14:16:04.828Z,0.80
2018-06-23T14:19:09.346Z,0.90
2018-06-23T14:22:13.912Z,0.80
2018-06-23T14:25:18.292Z,1.10
2018-06-23T14:28:22.751Z,1.02
2018-06-23T14:31:27.150Z,1.10
2018-06-23T14:34:31.545Z,1.00
2018-06-23T14:37:36.681Z,1.17
2018-06-23T14:40:41.561Z,1.00
2018-06-23T14:43:46.047Z,0.77
2018-06-23T14:46:50.700Z,0.80
2018-06-23T14:49:55.480Z,1.20
2018-06-23T14:53:00.205Z,1.30
2018-06-23T14:56:04.642Z,1.40
2018-06-23T14:59:09.205Z,0.83
2018-06-23T15:02:13.616Z,1.40
2018-06-23T15:05:18.027Z,1.13
2018-06-23T15:08:39.645Z,0.93
2018-06-23T15:12:01.196Z,1.20
2018-06-23T15:15:05.612Z,1.00
2018-06-23T15:18:10.686Z,0.70
2018-06-23T15:21:15.441Z,1.00
2018-06-23T15:24:20.015Z,0.77
2018-06-23T15:27:25.250Z,0.90
2018-06-23T15:30:29.669Z,0.73
2018-06-23T15:33:34.915Z,0.70
2018-06-23T15:36:39.363Z,0.90
2018-06-23T15:39:43.690Z,0.67
2018-06-23T15:42:48.138Z,1.07
2018-06-23T15:45:52.616Z,0.80
2018-06-23T15:48:57.003Z,0.87
2018-06-23T15:52:01.670Z,0.90
2018-06-23T15:55:06.349Z,1.00
2018-06-23T15:58:11.330Z,0.90
2018-06-23T16:01:15.787Z,0.87
2018-06-23T16:04:20.502Z,1.40
2018-06-23T16:07:25.114Z,1.20
2018-06-23T16:10:29.533Z,1.10
2018-06-23T16:13:34.893Z,1.33
2018-06-23T16:16:39.350Z,1.20
2018-06-23T16:20:41.289Z,0.90
2018-06-23T16:23:50.011Z,1.30
2018-06-23T16:26:54.421Z,1.10
2018-06-23T16:29:58.850Z,1.07
2018-06-23T16:33:03.459Z,1.00
2018-06-23T16:36:07.906Z,1.30
2018-06-23T16:39:12.511Z,1.10
2018-06-23T16:42:16.816Z,0.90
2018-06-23T16:45:21.113Z,1.10
2018-06-23T16:48:25.533Z,1.02
2018-06-23T16:51:29.988Z,1.17
2018-06-23T16:54:34.588Z,1.00
2018-06-23T16:57:38.992Z,1.00
2018-06-23T17:00:43.473Z,1.17
2018-06-23T17:03:48.564Z,1.10
2018-06-23T17:06:53.106Z,0.83
2018-06-23T17:09:57.437Z,1.07
2018-06-23T17:13:02.749Z,0.90
2018-06-23T17:16:07.625Z,0.90
2018-06-23T17:19:12.078Z,0.80
2018-06-23T17:22:16.406Z,1.27
2018-06-23T17:25:22.376Z,1.20
2018-06-23T17:28:26.824Z,1.22
2018-06-23T17:31:31.294Z,1.30
2018-06-23T17:34:35.912Z,1.00
2018-06-23T17:37:40.606Z,1.10
2018-06-23T17:40:46.252Z,1.13
2018-06-23T17:43:50.601Z,1.47
2018-06-23T17:46:55.094Z,1.40
2018-06-23T17:50:00.170Z,1.20
2018-06-23T17:53:04.665Z,1.07
2018-06-23T17:56:09.162Z,1.50
2018-06-23T17:59:13.525Z,0.97
2018-06-23T18:02:18.369Z,1.27
2018-06-23T18:05:23.510Z,1.50
2018-06-23T18:08:27.963Z,1.25
2018-06-23T18:11:32.519Z,1.33
2018-06-23T18:14:38.176Z,1.00
2018-06-23T18:17:42.588Z,1.63
2018-06-23T18:20:47.096Z,1.67
2018-06-23T18:23:52.754Z,1.57
2018-06-23T18:26:57.134Z,1.50
2018-06-23T18:30:02.264Z,1.40
2018-06-23T18:33:06.864Z,1.63
2018-06-23T18:36:11.297Z,1.60
2018-06-23T18:39:15.848Z,1.40
2018-06-23T18:42:20.386Z,1.37
2018-06-23T18:45:24.788Z,1.50
2018-06-23T18:48:29.613Z,1.35
2018-06-23T18:51:34.086Z,1.47
2018-06-23T18:54:38.642Z,1.53
2018-06-23T18:57:43.076Z,1.20
2018-06-23T19:00:47.470Z,1.70
2018-06-23T19:03:51.833Z,1.37
2018-06-23T19:06:56.338Z,1.60
2018-06-23T19:10:00.707Z,1.37
2018-06-23T19:13:05.362Z,1.30
2018-06-23T19:16:09.843Z,1.40
2018-06-23T19:19:14.441Z,1.10
2018-06-23T19:22:18.728Z,1.37
2018-06-23T19:25:23.133Z,1.57
2018-06-23T19:28:27.583Z,1.40
2018-06-23T19:31:32.682Z,1.30
2018-06-23T19:34:37.044Z,1.40
2018-06-23T19:37:41.464Z,1.50
2018-06-23T19:40:46.166Z,1.43
2018-06-23T19:43:51.545Z,1.52
2018-06-23T19:46:56.000Z,1.47
2018-06-23T19:50:00.969Z,1.60
2018-06-23T19:53:05.377Z,1.67
2018-06-23T19:56:09.941Z,1.80
2018-06-23T19:59:14.520Z,2.03
2018-06-23T20:02:19.163Z,1.37
2018-06-23T20:05:23.468Z,1.87
2018-06-23T20:08:27.910Z,1.60
2018-06-23T20:11:32.245Z,1.40
2018-06-23T20:14:36.637Z,1.80
2018-06-23T20:18:11.414Z,1.60
2018-06-23T20:21:35.893Z,1.60
2018-06-23T20:24:40.572Z,1.87
2018-06-23T20:27:45.645Z,2.10
2018-06-23T20:30:50.301Z,1.57
2018-06-23T20:33:55.268Z,1.67
2018-06-23T20:36:59.988Z,1.67
2018-06-23T20:40:05.441Z,1.33
2018-06-23T20:43:09.956Z,1.37
2018-06-23T20:46:14.564Z,1.50
2018-06-23T20:49:19.372Z,1.70
2018-06-23T20:52:24.113Z,1.83
2018-06-23T20:55:28.861Z,1.40
2018-06-23T20:58:33.412Z,1.50
2018-06-23T21:01:38.032Z,1.40
2018-06-23T21:04:43.071Z,2.07
2018-06-23T21:07:49.741Z,1.30
2018-06-23T21:10:58.788Z,1.40
2018-06-23T21:14:03.788Z,1.50
2018-06-23T21:17:08.063Z,1.30
2018-06-23T21:20:12.338Z,1.43
2018-06-23T21:23:16.639Z,1.70
2018-06-23T21:26:21.160Z,1.37
2018-06-23T21:29:25.805Z,1.43
2018-06-23T21:32:30.106Z,1.43
2018-06-23T21:35:34.406Z,1.50
2018-06-23T21:38:39.337Z,2.07
2018-06-23T21:41:43.618Z,1.90
2018-06-23T21:44:47.986Z,1.50
2018-06-23T21:47:52.409Z,1.70
2018-06-23T21:50:57.089Z,1.43
2018-06-23T21:54:02.081Z,1.60
2018-06-23T21:57:06.893Z,1.43
2018-06-23T22:00:45.866Z,2.27
2018-06-23T22:03:50.273Z,2.33
2018-06-23T22:06:54.662Z,2.30
2018-06-23T22:09:59.314Z,2.83
2018-06-23T22:13:03.961Z,2.43
2018-06-23T22:16:08.245Z,2.63
2018-06-23T22:19:12.564Z,2.60
2018-06-23T22:22:16.989Z,2.47
2018-06-23T22:25:22.055Z,2.00
2018-06-23T22:28:26.426Z,2.43
2018-06-23T22:31:30.843Z,2.23
2018-06-23T22:34:35.853Z,2.47
2018-06-23T22:37:40.509Z,2.63
2018-06-23T22:40:44.806Z,2.20
2018-06-23T22:43:49.309Z,2.57
2018-06-23T22:46:54.224Z,1.80
2018-06-23T22:49:58.557Z,2.10
2018-06-23T22:53:02.844Z,2.23
2018-06-23T22:56:07.269Z,2.23
2018-06-23T22:59:11.544Z,2.87
2018-06-23T23:02:15.838Z,2.77
2018-06-23T23:05:20.709Z,2.80
2018-06-23T23:08:25.125Z,2.60
2018-06-23T23:11:29.393Z,2.37
2018-06-23T23:14:33.743Z,2.23
2018-06-23T23:17:38.289Z,2.30
2018-06-23T23:20:42.578Z,2.00
2018-06-23T23:23:46.865Z,2.30
2018-06-23T23:26:51.424Z,1.67
2018-06-23T23:29:56.025Z,2.00
2018-06-23T23:33:00.512Z,2.20
2018-06-23T23:36:05.995Z,2.23
2018-06-23T23:39:11.450Z,1.97
2018-06-23T23:42:15.748Z,2.00
2018-06-23T23:45:20.399Z,2.17
2018-06-23T23:48:24.443Z,2.30
2018-06-23T23:51:28.866Z,2.33
2018-06-23T23:54:33.174Z,1.87
2018-06-23T23:57:55.180Z,2.30
